Time;durP1;ratioP1;P1;durP2;ratioP2;P2;SDS_P1;SDS_P2;PMS_P1;PMS_P2;Temp;Humidity;BMP_temperature;BMP_pressure;BME280_temperature;BME280_humidity;BME280_pressure;Samples;Min_cycle;Max_cycle;Signal;HPM_P1;HPM_P2
2023/03/17 00:00:15;;;;;;;8.13;6.70;;;;;;;6.78;78.92;99725.69;5142975;28;20163;-56
2023/03/17 00:02:44;;;;;;;6.80;6.20;;;;;;;6.60;78.49;99685.06;5142894;28;20155;-56
2023/03/17 00:05:18;;;;;;;7.17;6.43;;;;;;;6.84;78.24;99726.75;5142771;28;20157;-57
2023/03/17 00:07:46;;;;;;;6.77;6.17;;;;;;;6.82;78.09;99727.53;5146886;27;20166;-57
2023/03/17 00:10:17;;;;;;;6.60;6.00;;;;;;;6.78;77.93;99734.22;5146597;27;20188;-57
2023/03/17 00:12:45;;;;;;;7.13;6.43;;;;;;;6.76;79.07;99735.84;5151746;27;20177;-57
2023/03/17 00:15:14;;;;;;;8.57;6.30;;;;;;;6.79;79.23;99729.97;5150007;27;20173;-56
2023/03/17 00:17:42;;;;;;;6.83;6.13;;;;;;;6.73;78.90;99722.13;5153330;27;20191;-56
2023/03/17 00:20:27;;;;;;;6.23;5.63;;;;;;;6.71;79.85;99731.38;5161398;27;20197;-56
2023/03/17 00:22:56;;;;;;;7.75;6.95;;;;;;;6.73;79.71;99729.78;5160613;27;20416;-57
2023/03/17 00:25:26;;;;;;;7.10;6.40;;;;;;;6.74;79.28;99731.50;5156482;27;20197;-58
2023/03/17 00:27:53;;;;;;;6.83;6.17;;;;;;;6.70;79.86;99733.09;5148020;27;20257;-56
2023/03/17 00:30:20;;;;;;;6.97;6.03;;;;;;;6.70;80.02;99729.66;5142616;28;20157;-56
2023/03/17 00:32:48;;;;;;;7.37;6.67;;;;;;;6.71;79.76;99728.84;5142126;28;20195;-56
2023/03/17 00:35:21;;;;;;;8.10;6.33;;;;;;;6.64;80.54;99724.34;5142236;28;20173;-57
2023/03/17 00:37:52;;;;;;;7.17;6.47;;;;;;;6.63;81.13;99728.56;5142261;28;20213;-56
2023/03/17 00:41:05;;;;;;;8.10;7.40;;;;;;;6.73;80.23;99725.50;5140286;28;20444;-57
2023/03/17 00:43:32;;;;;;;6.27;5.67;;;;;;;6.70;80.24;99734.78;5151991;27;20173;-57
2023/03/17 00:45:59;;;;;;;7.33;6.73;;;;;;;6.67;80.88;99727.88;5149264;27;20418;-57
2023/03/17 00:48:28;;;;;;;6.63;6.03;;;;;;;6.55;81.19;99719.78;5142352;28;20155;-57
2023/03/17 00:50:55;;;;;;;5.83;5.33;;;;;;;6.68;80.48;99727.03;5147868;27;20171;-57
2023/03/17 00:53:24;;;;;;;6.77;5.90;;;;;;;6.60;80.99;99730.13;5153425;27;20168;-57
2023/03/17 00:55:50;;;;;;;5.83;5.23;;;;;;;6.52;81.09;99725.66;5162562;27;20153;-56
2023/03/17 00:58:27;;;;;;;6.07;5.47;;;;;;;6.52;81.34;99732.44;5162480;27;20249;-55
2023/03/17 01:00:55;;;;;;;6.27;5.67;;;;;;;6.52;81.54;99724.78;5162596;27;20149;-54
2023/03/17 01:03:22;;;;;;;5.63;5.10;;;;;;;6.59;81.17;99733.53;5141750;28;20162;-56
2023/03/17 01:05:52;;;;;;;5.70;5.20;;;;;;;6.44;81.57;99732.16;5141623;28;20157;-56
2023/03/17 01:08:21;;;;;;;5.87;5.27;;;;;;;6.50;81.26;99726.41;5141685;28;20217;-55
2023/03/17 01:10:49;;;;;;;5.57;4.97;;;;;;;6.49;81.60;99735.75;5141626;28;20226;-56
2023/03/17 01:13:16;;;;;;;5.83;5.33;;;;;;;6.45;81.85;99746.66;5141248;28;20178;-56
2023/03/17 01:15:46;;;;;;;5.90;5.30;;;;;;;6.52;82.19;99753.72;5141399;28;20154;-55
2023/03/17 01:18:15;;;;;;;5.20;4.70;;;;;;;6.53;81.50;99758.03;5141274;28;20178;-56
2023/03/17 01:20:43;;;;;;;5.67;5.17;;;;;;;6.53;81.83;99747.81;5141225;28;20158;-56
2023/03/17 01:23:11;;;;;;;5.57;5.07;;;;;;;6.60;80.63;99753.13;5141161;28;20232;-56
2023/03/17 01:25:38;;;;;;;4.97;4.57;;;;;;;6.60;80.82;99756.53;5141110;28;20153;-56
2023/03/17 01:28:07;;;;;;;5.90;5.40;;;;;;;6.67;80.44;99753.41;5140063;28;20428;-56
2023/03/17 01:30:37;;;;;;;5.23;4.73;;;;;;;6.71;80.05;99756.91;5140947;28;20179;-56
2023/03/17 01:33:05;;;;;;;5.33;4.83;;;;;;;6.76;79.29;99760.50;5140946;28;20150;-56
2023/03/17 01:35:33;;;;;;;4.83;4.43;;;;;;;6.78;79.72;99758.88;5140898;28;20155;-57
2023/03/17 01:37:59;;;;;;;4.83;4.40;;;;;;;6.73;79.30;99761.25;5140735;28;20244;-56
2023/03/17 01:40:30;;;;;;;4.73;4.33;;;;;;;6.70;78.74;99758.63;5140876;28;20183;-56
2023/03/17 01:43:16;;;;;;;5.13;4.70;;;;;;;6.75;79.13;99758.78;5140766;28;20154;-55
2023/03/17 01:46:20;;;;;;;4.73;4.33;;;;;;;6.84;78.67;99764.22;5141504;27;20153;-56
2023/03/17 01:48:55;;;;;;;4.80;4.40;;;;;;;6.71;77.93;99741.59;5161204;27;20161;-55
2023/03/17 01:51:28;;;;;;;4.83;4.40;;;;;;;6.83;78.29;99767.59;5161206;27;20183;-55
2023/03/17 01:53:57;;;;;;;4.67;4.10;;;;;;;6.86;78.21;99768.56;5160829;27;20185;-55
2023/03/17 01:56:24;;;;;;;4.27;3.87;;;;;;;6.89;77.37;99772.91;5161119;27;20182;-55
2023/03/17 01:58:54;;;;;;;4.80;4.40;;;;;;;6.93;77.14;99772.19;5161056;27;20202;-56
2023/03/17 02:01:27;;;;;;;4.70;4.27;;;;;;;6.92;76.77;99778.13;5161179;27;20168;-57
2023/03/17 02:03:56;;;;;;;7.50;6.00;;;;;;;6.89;76.80;99776.34;5161227;27;20175;-54
2023/03/17 02:06:23;;;;;;;3.97;3.67;;;;;;;6.90;76.21;99780.59;5161041;27;20154;-57
2023/03/17 02:08:50;;;;;;;4.70;4.30;;;;;;;6.92;76.77;99778.13;5161046;27;20222;-55
2023/03/17 02:11:18;;;;;;;5.87;3.57;;;;;;;6.94;75.69;99784.16;5161127;27;20234;-56
2023/03/17 02:13:44;;;;;;;4.10;3.80;;;;;;;6.93;75.49;99783.28;5161043;27;20153;-55
2023/03/17 02:16:16;;;;;;;4.20;3.90;;;;;;;6.89;76.39;99789.09;5160864;27;20157;-57
2023/03/17 02:18:43;;;;;;;4.67;4.27;;;;;;;6.89;76.13;99784.00;5160797;27;20208;-54
2023/03/17 02:21:39;;;;;;;4.00;3.70;;;;;;;6.91;76.09;99787.47;5160829;27;20156;-57
2023/03/17 02:24:10;;;;;;;4.40;4.00;;;;;;;6.92;76.04;99785.78;5160860;27;20209;-53
2023/03/17 02:26:38;;;;;;;3.80;3.50;;;;;;;6.94;75.63;99782.47;5160927;28;20194;-55
2023/03/17 02:29:05;;;;;;;3.73;3.43;;;;;;;6.94;75.31;99792.69;5160687;28;20187;-56
2023/03/17 02:31:32;;;;;;;3.63;3.33;;;;;;;6.93;75.57;99792.63;5160846;27;20182;-56
2023/03/17 02:33:59;;;;;;;3.60;3.30;;;;;;;6.96;75.78;99791.03;5160882;28;20153;-55
2023/03/17 02:36:26;;;;;;;3.97;3.63;;;;;;;6.98;74.45;99799.63;5160871;28;20153;-56
2023/03/17 02:38:54;;;;;;;3.93;3.63;;;;;;;6.96;75.19;99801.25;5160664;28;20184;-55
2023/03/17 02:41:21;;;;;;;4.00;3.67;;;;;;;7.00;74.42;99807.34;5160390;28;20150;-56
2023/03/17 02:43:47;;;;;;;3.67;3.37;;;;;;;7.03;74.99;99808.31;5160797;27;20150;-56
2023/03/17 02:46:15;;;;;;;3.40;3.10;;;;;;;7.04;74.51;99815.16;5160685;28;20157;-56
2023/03/17 02:48:43;;;;;;;4.03;3.63;;;;;;;6.95;73.88;99789.28;5160508;27;20159;-56
2023/03/17 02:51:09;;;;;;;3.97;3.57;;;;;;;7.09;73.41;99815.31;5160682;28;20162;-57
2023/03/17 02:53:36;;;;;;;4.07;3.67;;;;;;;7.14;73.12;99813.81;5144757;27;20174;-57
2023/03/17 02:56:05;;;;;;;4.13;3.50;;;;;;;7.14;73.25;99811.28;5140001;28;20221;-56
2023/03/17 02:58:32;;;;;;;4.23;3.50;;;;;;;7.19;73.43;99817.41;5139763;28;20184;-56
2023/03/17 03:00:59;;;;;;;3.17;2.87;;;;;;;7.19;73.04;99821.63;5139727;28;20161;-57
2023/03/17 03:03:26;;;;;;;4.23;3.23;;;;;;;7.18;73.26;99823.31;5140019;28;20179;-56
2023/03/17 03:05:53;;;;;;;3.73;3.43;;;;;;;7.19;72.66;99822.50;5142049;28;20161;-57
2023/03/17 03:08:20;;;;;;;3.60;3.30;;;;;;;7.24;72.21;99827.78;5143882;28;20189;-55
2023/03/17 03:10:47;;;;;;;3.87;3.33;;;;;;;7.26;72.29;99821.91;5143608;28;20208;-57
2023/03/17 03:13:16;;;;;;;3.63;3.33;;;;;;;7.26;72.12;99833.78;5143857;28;20153;-57
2023/03/17 03:15:43;;;;;;;3.40;3.10;;;;;;;7.27;71.43;99827.88;5143709;28;20177;-56
2023/03/17 03:18:11;;;;;;;3.80;3.50;;;;;;;7.28;71.43;99840.69;5143486;28;20201;-56
2023/03/17 03:20:38;;;;;;;4.07;3.67;;;;;;;7.29;71.74;99841.56;5143487;28;20157;-56
2023/03/17 03:23:04;;;;;;;3.80;3.20;;;;;;;7.31;71.60;99840.81;5145613;27;20176;-57
2023/03/17 03:25:31;;;;;;;3.53;3.23;;;;;;;7.36;70.92;99836.72;5164332;27;20157;-56
2023/03/17 03:27:58;;;;;;;5.28;4.28;;;;;;;7.33;70.95;99839.19;5154671;27;20346;-57
2023/03/17 03:30:26;;;;;;;3.73;3.43;;;;;;;7.35;71.19;99841.78;5143455;28;20180;-56
2023/03/17 03:32:53;;;;;;;4.60;4.20;;;;;;;7.34;70.40;99838.34;5143292;28;20170;-56
2023/03/17 03:35:20;;;;;;;3.70;3.40;;;;;;;7.38;70.42;99841.91;5143273;28;20165;-55
2023/03/17 03:37:47;;;;;;;3.50;3.20;;;;;;;7.39;70.56;99843.66;5143139;28;20208;-58
2023/03/17 03:40:14;;;;;;;3.80;3.40;;;;;;;7.40;70.28;99835.16;5143280;28;20165;-56
2023/03/17 03:42:41;;;;;;;3.23;2.93;;;;;;;7.42;70.42;99839.47;5143238;28;20157;-56
2023/03/17 03:45:09;;;;;;;3.87;3.57;;;;;;;7.42;70.03;99839.47;5150207;27;20177;-56
2023/03/17 03:47:37;;;;;;;2.77;2.53;;;;;;;7.37;70.14;99840.16;5163769;27;20156;-55
2023/03/17 03:50:05;;;;;;;3.30;3.10;;;;;;;7.36;70.15;99843.53;5163637;27;20241;-57
2023/03/17 03:52:32;;;;;;;3.73;3.43;;;;;;;7.40;69.82;99848.78;5163746;27;20171;-56
2023/03/17 03:54:59;;;;;;;3.70;3.40;;;;;;;7.46;69.69;99849.00;5163707;27;20154;-56
2023/03/17 03:57:26;;;;;;;3.70;3.40;;;;;;;7.48;68.76;99841.38;5163670;27;20185;-55
2023/03/17 03:59:52;;;;;;;3.20;3.00;;;;;;;7.49;68.43;99849.13;5163105;27;20423;-57
2023/03/17 04:02:19;;;;;;;3.87;3.57;;;;;;;7.49;68.58;99863.59;5163493;27;20228;-57
2023/03/17 04:04:48;;;;;;;3.60;3.30;;;;;;;7.42;68.26;99857.38;5163752;27;20157;-56
2023/03/17 04:07:14;;;;;;;4.53;3.07;;;;;;;7.39;68.10;99853.88;5163812;27;20182;-56
2023/03/17 04:09:41;;;;;;;3.50;3.00;;;;;;;7.34;68.97;99860.47;5163467;27;20154;-56
2023/03/17 04:12:10;;;;;;;3.40;3.10;;;;;;;7.26;69.09;99849.13;5152226;27;20232;-57
2023/03/17 04:14:36;;;;;;;4.20;3.60;;;;;;;7.33;69.03;99863.88;5163339;27;20425;-56
2023/03/17 04:17:04;;;;;;;3.97;2.87;;;;;;;7.35;68.57;99867.34;5163238;27;20163;-56
2023/03/17 04:19:31;;;;;;;3.90;3.60;;;;;;;7.33;67.77;99869.88;5163314;27;20192;-56
2023/03/17 04:21:59;;;;;;;4.00;3.17;;;;;;;7.33;68.12;99869.00;5163401;27;20158;-57
2023/03/17 04:24:26;;;;;;;3.40;3.10;;;;;;;7.29;68.16;99874.78;5163290;27;20175;-56
2023/03/17 04:26:53;;;;;;;3.53;3.23;;;;;;;7.18;68.47;99853.97;5163064;27;20220;-56
2023/03/17 04:29:20;;;;;;;3.77;3.47;;;;;;;7.18;68.51;99879.53;5163079;27;20162;-55
2023/03/17 04:31:47;;;;;;;3.87;3.50;;;;;;;7.33;68.99;99894.53;5159455;27;20170;-56
2023/03/17 04:34:16;;;;;;;3.30;3.00;;;;;;;7.38;68.14;99898.13;5142346;28;20158;-56
2023/03/17 04:36:44;;;;;;;4.30;3.30;;;;;;;7.36;67.67;99897.22;5142197;28;20164;-56
2023/03/17 04:39:12;;;;;;;3.40;3.10;;;;;;;7.35;68.75;99903.13;5141848;28;20182;-56
2023/03/17 04:41:39;;;;;;;2.97;2.77;;;;;;;7.37;68.55;99902.38;5142177;28;20166;-56
2023/03/17 04:44:07;;;;;;;3.30;3.00;;;;;;;7.40;67.80;99909.28;5142061;28;20158;-57
2023/03/17 04:46:34;;;;;;;4.00;3.70;;;;;;;7.44;68.14;99911.13;5152361;27;20413;-56
2023/03/17 04:49:01;;;;;;;3.60;3.30;;;;;;;7.54;67.27;99905.50;5154973;27;20423;-57
2023/03/17 04:51:28;;;;;;;4.17;3.73;;;;;;;7.56;66.90;99914.09;5159327;27;20177;-57
2023/03/17 04:53:55;;;;;;;3.43;3.10;;;;;;;7.53;66.74;99912.31;5162405;27;20210;-57
2023/03/17 04:56:23;;;;;;;3.40;3.07;;;;;;;7.53;67.16;99914.00;5162333;27;20154;-57
2023/03/17 04:58:50;;;;;;;3.70;3.27;;;;;;;7.50;67.30;99921.53;5155710;27;20193;-57
2023/03/17 05:01:17;;;;;;;4.18;3.47;;;;;;;7.48;66.99;99915.53;5140958;28;20422;-56
2023/03/17 05:03:44;;;;;;;4.63;3.50;;;;;;;7.54;67.15;99921.72;5141504;28;20167;-57
2023/03/17 05:06:11;;;;;;;5.13;3.60;;;;;;;7.56;67.11;99924.31;5158605;27;20174;-56
2023/03/17 05:08:37;;;;;;;4.13;3.67;;;;;;;7.53;67.29;99921.66;5161609;27;20176;-56
2023/03/17 05:11:05;;;;;;;4.43;4.00;;;;;;;7.58;66.95;99932.94;5162038;27;20173;-56
2023/03/17 05:13:33;;;;;;;4.33;3.93;;;;;;;7.62;66.57;99937.31;5141363;28;20191;-55
2023/03/17 05:16:00;;;;;;;4.17;3.77;;;;;;;7.65;66.57;99938.31;5141452;28;20159;-56
2023/03/17 05:18:27;;;;;;;5.13;3.80;;;;;;;7.67;65.82;99946.91;5141323;28;20201;-56
2023/03/17 05:20:54;;;;;;;4.30;3.90;;;;;;;7.70;65.74;99957.25;5141400;28;20154;-57
2023/03/17 05:23:21;;;;;;;10.13;4.80;;;;;;;7.70;65.61;99951.25;5141615;28;20158;-57
2023/03/17 05:25:48;;;;;;;5.25;4.25;;;;;;;7.63;65.86;99951.88;5140812;28;20446;-56
2023/03/17 05:28:15;;;;;;;3.80;3.50;;;;;;;7.61;65.66;99930.47;5140555;28;20182;-56
2023/03/17 05:30:44;;;;;;;4.13;3.83;;;;;;;7.79;65.13;99959.25;5141447;28;20151;-57
2023/03/17 05:33:11;;;;;;;4.50;4.10;;;;;;;7.81;65.35;99961.84;5141181;28;20151;-57
2023/03/17 05:35:39;;;;;;;4.00;3.60;;;;;;;7.84;65.24;99964.50;5141262;28;20150;-57
2023/03/17 05:38:07;;;;;;;4.67;4.27;;;;;;;7.84;65.33;99959.41;5140972;28;20186;-57
2023/03/17 05:40:34;;;;;;;4.87;4.33;;;;;;;7.94;65.15;99964.03;5141187;28;20218;-57
2023/03/17 05:43:01;;;;;;;5.43;4.20;;;;;;;8.01;64.06;99950.63;5140983;28;20175;-56
2023/03/17 05:45:28;;;;;;;5.13;4.23;;;;;;;8.15;64.02;99969.88;5141036;28;20157;-57
2023/03/17 05:47:56;;;;;;;4.93;4.47;;;;;;;8.20;63.14;99963.19;5140941;28;20154;-56
2023/03/17 05:50:23;;;;;;;4.83;4.33;;;;;;;8.21;63.02;99978.59;5140693;28;20158;-56
2023/03/17 05:52:51;;;;;;;4.80;4.40;;;;;;;8.22;62.28;99976.91;5140940;28;20161;-57
2023/03/17 05:55:18;;;;;;;4.77;4.27;;;;;;;8.28;62.81;99977.16;5140692;28;20185;-56
2023/03/17 05:57:45;;;;;;;7.13;4.83;;;;;;;8.33;62.77;99970.50;5141362;28;20164;-56
2023/03/17 06:00:15;;;;;;;4.37;3.97;;;;;;;8.49;61.89;99984.69;5160949;27;20150;-55
2023/03/17 06:02:41;;;;;;;5.03;4.53;;;;;;;8.62;61.53;99987.69;5160947;27;20179;-55
2023/03/17 06:05:10;;;;;;;4.63;4.13;;;;;;;8.70;60.77;99993.91;5161062;27;20151;-55
2023/03/17 06:07:37;;;;;;;5.93;5.03;;;;;;;8.77;60.75;100003.50;5140322;27;20163;-58
2023/03/17 06:10:05;;;;;;;5.30;4.80;;;;;;;8.93;60.09;99998.88;5140224;28;20239;-57
2023/03/17 06:12:32;;;;;;;5.60;5.00;;;;;;;9.00;59.62;100008.47;5149622;27;20173;-57
2023/03/17 06:14:59;;;;;;;12.20;6.30;;;;;;;8.99;59.88;99999.91;5150599;27;20205;-58
2023/03/17 06:17:26;;;;;;;5.77;5.17;;;;;;;8.95;59.60;100007.47;5154838;27;20169;-56
2023/03/17 06:19:52;;;;;;;5.72;5.10;;;;;;;8.77;59.87;100010.31;5159887;27;20416;-56
2023/03/17 06:22:20;;;;;;;7.03;4.97;;;;;;;8.87;59.94;100005.53;5159688;27;20210;-56
2023/03/17 06:24:48;;;;;;;7.93;5.40;;;;;;;8.93;59.53;100019.38;5159848;27;20176;-57
2023/03/17 06:27:14;;;;;;;6.23;5.63;;;;;;;8.86;60.51;100011.50;5159721;27;20185;-57
2023/03/17 06:29:41;;;;;;;9.77;5.77;;;;;;;8.94;59.92;100015.97;5159064;27;20271;-56
2023/03/17 06:32:08;;;;;;;7.27;5.40;;;;;;;8.88;62.49;100016.66;5154554;28;20207;-56
2023/03/17 06:34:35;;;;;;;7.17;6.33;;;;;;;8.96;60.83;100022.88;5160371;28;20160;-56
2023/03/17 06:37:02;;;;;;;9.47;6.10;;;;;;;9.03;60.29;100017.16;5160108;28;20166;-57
2023/03/17 06:39:30;;;;;;;7.30;6.03;;;;;;;9.04;60.19;100023.97;5160403;27;20193;-56
2023/03/17 06:41:57;;;;;;;6.90;6.20;;;;;;;9.11;59.74;100023.38;5164635;27;20153;-56
2023/03/17 06:44:23;;;;;;;6.03;5.03;;;;;;;9.06;59.69;100024.06;5164185;27;20157;-57
2023/03/17 06:46:51;;;;;;;7.53;6.07;;;;;;;9.13;59.75;100018.28;5164572;27;20184;-57
2023/03/17 06:49:18;;;;;;;6.40;5.70;;;;;;;9.24;59.75;100020.34;5164089;27;20178;-56
2023/03/17 06:51:44;;;;;;;5.77;5.23;;;;;;;9.26;60.23;100022.94;5164122;27;20154;-57
2023/03/17 06:54:11;;;;;;;13.57;5.97;;;;;;;9.23;60.40;100020.31;5164267;27;20158;-56
2023/03/17 06:56:40;;;;;;;5.87;5.33;;;;;;;9.38;60.27;100018.19;5164319;27;20177;-57
2023/03/17 06:59:07;;;;;;;6.00;5.40;;;;;;;9.37;58.34;100019.00;5163581;27;20197;-56
2023/03/17 07:01:34;;;;;;;6.63;5.93;;;;;;;9.46;57.58;100022.72;5162709;27;20172;-56
2023/03/17 07:04:01;;;;;;;6.57;5.80;;;;;;;9.46;57.72;100026.97;5161592;27;20154;-56
2023/03/17 07:06:28;;;;;;;7.27;6.00;;;;;;;9.55;57.12;100031.50;5161752;27;20248;-56
2023/03/17 07:08:55;;;;;;;8.07;5.63;;;;;;;9.60;56.70;100032.50;5154859;27;20169;-55
2023/03/17 07:11:23;;;;;;;6.60;6.00;;;;;;;9.68;56.43;100038.72;5163211;27;20221;-56
2023/03/17 07:13:51;;;;;;;7.80;5.43;;;;;;;9.76;55.79;100043.22;5162927;27;20162;-57
2023/03/17 07:16:19;;;;;;;8.30;6.00;;;;;;;9.86;55.63;100044.38;5154256;27;20162;-56
2023/03/17 07:18:46;;;;;;;6.60;5.90;;;;;;;9.91;55.17;100047.94;5158497;27;20192;-55
2023/03/17 07:21:13;;;;;;;7.07;5.77;;;;;;;9.77;55.30;100049.25;5163926;27;20213;-55
2023/03/17 07:23:40;;;;;;;5.57;5.07;;;;;;;9.60;54.58;100015.41;5161266;27;20182;-56
2023/03/17 07:26:07;;;;;;;6.27;5.63;;;;;;;9.79;54.83;100048.47;5162355;27;20423;-56
2023/03/17 07:28:34;;;;;;;5.50;5.00;;;;;;;9.83;54.56;100052.00;5161867;27;20182;-55
2023/03/17 07:31:04;;;;;;;5.17;4.67;;;;;;;9.84;54.08;100052.00;5163231;27;20157;-55
2023/03/17 07:33:32;;;;;;;6.00;5.40;;;;;;;9.93;53.69;100051.41;5162516;27;20399;-56
2023/03/17 07:35:59;;;;;;;5.23;4.73;;;;;;;10.03;52.16;100049.13;5154914;27;20176;-57
2023/03/17 07:38:26;;;;;;;7.53;4.67;;;;;;;10.09;52.14;100044.16;5163434;27;20154;-56
2023/03/17 07:40:53;;;;;;;5.60;5.10;;;;;;;10.03;52.98;100048.25;5163344;27;20189;-56
2023/03/17 07:43:20;;;;;;;5.53;5.03;;;;;;;10.04;52.79;100044.88;5163511;27;20200;-55
2023/03/17 07:45:47;;;;;;;8.40;5.53;;;;;;;10.12;52.58;100052.75;5163669;27;20154;-55
2023/03/17 07:48:15;;;;;;;4.20;3.80;;;;;;;10.16;50.95;100046.94;5163448;27;20166;-56
2023/03/17 07:50:43;;;;;;;5.83;4.57;;;;;;;10.11;50.94;100043.34;5162758;27;20466;-57
2023/03/17 07:53:10;;;;;;;6.23;4.60;;;;;;;10.19;50.95;100040.16;5163288;27;20154;-55
2023/03/17 07:55:37;;;;;;;6.37;5.07;;;;;;;10.04;51.70;100021.75;5163112;27;20214;-57
2023/03/17 07:58:04;;;;;;;7.05;6.38;;;;;;;10.38;51.41;100038.97;5162660;27;20397;-55
2023/03/17 08:00:33;;;;;;;6.10;5.03;;;;;;;10.42;50.56;100043.31;5163210;27;20214;-57
2023/03/17 08:02:59;;;;;;;4.80;4.33;;;;;;;10.40;49.91;100039.84;5163116;27;20226;-55
2023/03/17 08:05:28;;;;;;;4.17;3.40;;;;;;;10.12;49.16;100038.22;5162086;27;20220;-55
2023/03/17 08:07:54;;;;;;;4.33;3.93;;;;;;;10.12;48.94;100037.34;5155490;27;20264;-55
2023/03/17 08:10:21;;;;;;;5.50;4.53;;;;;;;10.26;48.34;100036.06;5152026;27;20174;-55
2023/03/17 08:12:52;;;;;;;4.53;4.10;;;;;;;10.43;48.77;100040.81;5144615;27;20165;-55
2023/03/17 08:15:19;;;;;;;8.73;4.57;;;;;;;10.50;48.38;100026.41;5162643;27;20154;-55
2023/03/17 08:17:45;;;;;;;7.47;5.07;;;;;;;10.90;47.47;100039.41;5162019;27;20229;-55
2023/03/17 08:20:13;;;;;;;5.30;4.50;;;;;;;10.95;47.35;100039.50;5162993;27;20189;-56
2023/03/17 08:22:41;;;;;;;5.57;5.00;;;;;;;11.12;46.83;100041.59;5162644;27;20213;-55
2023/03/17 08:25:10;;;;;;;6.40;4.10;;;;;;;11.33;45.52;100043.81;5162618;27;20213;-54
2023/03/17 08:27:37;;;;;;;4.10;3.73;;;;;;;11.31;44.26;100049.75;5156025;27;20209;-57
2023/03/17 08:30:05;;;;;;;7.33;4.10;;;;;;;11.51;43.62;100045.91;5142046;28;20173;-55
2023/03/17 08:32:32;;;;;;;7.57;3.90;;;;;;;11.22;43.94;100042.69;5149347;27;20166;-57
2023/03/17 08:35:00;;;;;;;5.27;4.43;;;;;;;11.57;44.16;100041.75;5144835;27;20189;-56
2023/03/17 08:37:26;;;;;;;5.80;4.67;;;;;;;11.64;43.14;100037.59;5161864;27;20180;-56
2023/03/17 08:39:55;;;;;;;5.20;4.40;;;;;;;11.60;43.93;100030.66;5160894;27;20193;-55
2023/03/17 08:42:22;;;;;;;4.83;4.17;;;;;;;11.72;43.38;100030.94;5155801;27;20165;-56
2023/03/17 08:44:49;;;;;;;4.57;4.17;;;;;;;11.48;44.24;100026.09;5161430;27;20210;-56
2023/03/17 08:47:16;;;;;;;5.07;3.93;;;;;;;11.66;44.00;100026.50;5160926;27;20158;-57
2023/03/17 08:49:43;;;;;;;6.53;4.67;;;;;;;11.79;43.52;100028.50;5161821;27;20200;-56
2023/03/17 08:52:09;;;;;;;4.60;3.90;;;;;;;11.90;43.21;100023.56;5161739;27;20177;-56
2023/03/17 08:54:36;;;;;;;5.87;5.00;;;;;;;12.01;43.51;100016.03;5161221;27;20185;-55
2023/03/17 08:57:05;;;;;;;4.90;4.43;;;;;;;12.09;43.42;100011.91;5155216;27;20217;-55
2023/03/17 08:59:32;;;;;;;5.37;4.37;;;;;;;12.05;42.32;99994.66;5151235;27;20213;-56
2023/03/17 09:01:59;;;;;;;4.20;3.90;;;;;;;12.11;42.28;100012.81;5140669;28;20165;-55
2023/03/17 09:04:27;;;;;;;4.50;4.10;;;;;;;11.86;42.39;100013.19;5139240;28;20178;-55
2023/03/17 09:06:54;;;;;;;6.60;5.90;;;;;;;11.98;43.08;100011.69;5140940;28;20193;-55
2023/03/17 09:09:22;;;;;;;5.53;5.03;;;;;;;11.98;43.55;100014.28;5142214;27;20212;-56
2023/03/17 09:11:49;;;;;;;4.53;4.03;;;;;;;12.06;43.94;100017.88;5139956;28;20166;-56
2023/03/17 09:14:17;;;;;;;6.80;4.83;;;;;;;11.80;43.93;99976.19;5139967;28;20163;-55
2023/03/17 09:16:47;;;;;;;6.00;4.87;;;;;;;11.99;43.65;100017.72;5159343;27;20188;-55
2023/03/17 09:19:15;;;;;;;6.83;5.93;;;;;;;12.06;43.82;100019.59;5161335;27;20264;-55
2023/03/17 09:21:42;;;;;;;4.70;4.30;;;;;;;12.23;43.46;100024.19;5159390;27;20166;-56
2023/03/17 09:24:09;;;;;;;4.83;4.33;;;;;;;12.28;43.19;100021.69;5159488;27;20191;-55
2023/03/17 09:26:36;;;;;;;5.30;4.80;;;;;;;12.05;43.56;100016.16;5160619;27;20237;-55
2023/03/17 09:29:04;;;;;;;4.87;4.47;;;;;;;12.25;42.95;100022.50;5160081;27;20230;-56
2023/03/17 09:31:32;;;;;;;8.67;4.47;;;;;;;12.14;42.65;100000.84;5160310;27;20161;-56
2023/03/17 09:33:59;;;;;;;6.90;4.37;;;;;;;12.20;42.92;100018.13;5160176;27;20184;-56
2023/03/17 09:36:26;;;;;;;5.63;4.60;;;;;;;12.11;42.92;100013.69;5160465;27;20166;-56
2023/03/17 09:38:53;;;;;;;5.77;5.20;;;;;;;12.01;43.33;100016.91;5160167;27;20409;-55
2023/03/17 09:42:08;;;;;;;4.23;3.83;;;;;;;12.12;42.55;100017.97;5160533;27;20158;-55
2023/03/17 09:44:53;;;;;;;5.90;4.13;;;;;;;12.32;41.81;100016.66;5154138;27;20154;-55
2023/03/17 09:47:39;;;;;;;6.73;4.70;;;;;;;12.47;41.20;100016.00;5160687;27;20154;-56
2023/03/17 09:50:13;;;;;;;4.13;3.67;;;;;;;12.46;40.88;100016.88;5160209;27;20164;-56
2023/03/17 09:52:40;;;;;;;5.40;3.83;;;;;;;12.55;40.67;100011.88;5160087;27;20213;-55
2023/03/17 09:55:12;;;;;;;6.57;3.90;;;;;;;12.77;40.32;100006.19;5159953;27;20153;-56
2023/03/17 09:57:40;;;;;;;4.43;4.10;;;;;;;12.50;39.38;99974.81;5159662;27;20221;-55
2023/03/17 10:00:15;;;;;;;4.20;3.80;;;;;;;12.70;38.90;100009.53;5160095;27;20181;-55
2023/03/17 10:02:44;;;;;;;4.23;3.50;;;;;;;12.85;38.75;100003.75;5157888;27;20166;-56
2023/03/17 10:05:19;;;;;;;3.50;3.20;;;;;;;12.61;38.22;100009.38;5139226;28;20155;-55
2023/03/17 10:07:53;;;;;;;8.10;3.40;;;;;;;12.46;39.13;100005.69;5139181;28;20162;-55
2023/03/17 10:10:28;;;;;;;5.17;3.60;;;;;;;12.37;39.05;100008.97;5139482;28;20176;-56
2023/03/17 10:13:03;;;;;;;3.63;3.33;;;;;;;12.20;39.35;100007.81;5139496;28;20182;-56
2023/03/17 10:15:37;;;;;;;3.43;3.13;;;;;;;12.28;39.18;99995.94;5154916;27;20172;-55
2023/03/17 10:18:13;;;;;;;5.07;3.17;;;;;;;12.49;39.50;100000.59;5160444;27;20150;-56
2023/03/17 10:20:48;;;;;;;3.73;3.30;;;;;;;12.29;39.19;99975.38;5160132;27;20208;-56
2023/03/17 10:23:19;;;;;;;7.33;3.77;;;;;;;12.57;38.20;100001.59;5160119;28;20162;-56
2023/03/17 10:25:47;;;;;;;3.20;2.90;;;;;;;12.19;37.72;99988.06;5159876;27;20154;-56
2023/03/17 10:28:24;;;;;;;4.70;3.40;;;;;;;12.49;37.87;99995.44;5159538;27;20189;-56
2023/03/17 10:30:52;;;;;;;2.97;2.77;;;;;;;12.44;37.31;99970.44;5160147;28;20218;-56
2023/03/17 10:33:21;;;;;;;3.53;3.00;;;;;;;12.57;37.11;99997.31;5146786;28;20234;-55
2023/03/17 10:35:48;;;;;;;3.30;3.00;;;;;;;12.40;37.56;99991.88;5139527;28;20159;-56
2023/03/17 10:38:17;;;;;;;5.10;3.27;;;;;;;12.59;37.68;99987.88;5139687;28;20162;-56
2023/03/17 10:40:47;;;;;;;3.40;3.10;;;;;;;12.56;37.48;99994.69;5138460;28;20440;-56
2023/03/17 10:43:19;;;;;;;3.20;2.33;;;;;;;12.58;37.37;99973.25;5139448;28;20211;-56
2023/03/17 10:46:01;;;;;;;7.13;4.67;;;;;;;13.07;37.33;99982.63;5139533;28;20219;-56
2023/03/17 10:48:31;;;;;;;6.97;4.53;;;;;;;13.23;36.49;99975.94;5139807;28;20154;-56
2023/03/17 10:50:59;;;;;;;3.87;3.23;;;;;;;13.32;36.61;99973.50;5139532;28;20204;-56
2023/03/17 10:53:30;;;;;;;4.03;3.57;;;;;;;13.48;36.62;99978.00;5138895;28;20174;-57
2023/03/17 10:55:59;;;;;;;4.83;4.27;;;;;;;13.37;36.45;99952.06;5140854;28;20170;-55
2023/03/17 10:58:37;;;;;;;5.10;4.60;;;;;;;13.45;36.64;99984.00;5148281;28;20170;-56
2023/03/17 11:01:07;;;;;;;6.67;4.10;;;;;;;13.59;36.66;99985.03;5139058;28;20186;-55
2023/03/17 11:03:40;;;;;;;4.37;3.97;;;;;;;13.66;35.77;99967.88;5139498;28;20180;-56
2023/03/17 11:06:10;;;;;;;3.77;3.30;;;;;;;13.63;36.16;99982.47;5139406;28;20155;-55
2023/03/17 11:08:40;;;;;;;4.05;3.65;;;;;;;13.67;36.24;99979.97;5158301;28;20428;-57
2023/03/17 11:11:10;;;;;;;3.90;3.60;;;;;;;13.93;35.88;99975.94;5159632;27;20175;-56
2023/03/17 11:13:37;;;;;;;5.10;4.43;;;;;;;14.00;35.61;99977.75;5159186;28;20217;-56
2023/03/17 11:16:10;;;;;;;3.33;3.07;;;;;;;14.05;35.69;99968.31;5159350;27;20218;-56
2023/03/17 11:18:40;;;;;;;3.93;3.27;;;;;;;14.19;35.56;99966.72;5159827;27;20150;-56
2023/03/17 11:21:10;;;;;;;3.97;3.07;;;;;;;14.10;35.44;99960.59;5159660;27;20185;-56
2023/03/17 11:23:48;;;;;;;4.70;3.50;;;;;;;14.13;35.51;99958.03;5159248;28;20166;-57
2023/03/17 11:26:36;;;;;;;4.07;3.50;;;;;;;14.31;35.50;99959.94;5152628;27;20486;-56
2023/03/17 11:29:22;;;;;;;3.60;3.30;;;;;;;14.40;35.40;99965.19;5147511;27;20200;-56
2023/03/17 11:32:03;;;;;;;3.33;3.03;;;;;;;14.31;35.08;99959.94;5142787;28;20178;-56
2023/03/17 11:34:43;;;;;;;3.37;3.07;;;;;;;13.69;35.96;99956.72;5149698;27;20162;-56
2023/03/17 11:37:21;;;;;;;3.93;3.53;;;;;;;13.06;36.88;99949.91;5145021;27;20205;-56
2023/03/17 11:39:53;;;;;;;3.67;3.37;;;;;;;13.38;36.86;99951.19;5142543;28;20217;-56
2023/03/17 11:42:27;;;;;;;3.60;3.30;;;;;;;13.42;37.26;99946.94;5154386;27;20210;-56
2023/03/17 11:45:17;;;;;;;3.87;3.43;;;;;;;13.47;36.77;99950.44;5162947;27;20147;-55